Wetterdaten: Woche 03.09.18 - 09.09.18 (KW36)
Datum Zeit Temp. Aussen Temp. o. S. +5cm Feuchte Auss Luftdruck Regen Sonnenschein Regendauer Solar Windben Empfang
03.09.2018 00:00 19,3 C 18,1 C 17,8 C 66 % 1018,8 hPa 0,0 l/m 0,00 h 0,00 h 0 W/m 3,2 km/h (1 Bft) 98,51 %
03.09.2018 01:00 18,8 C 17,8 C 17,6 C 69 % 1018,3 hPa 0,0 l/m 0,00 h 0,00 h 0 W/m 4,6 km/h (1 Bft) 97,47 %
03.09.2018 02:00 18,4 C 17,1 C 17,0 C 72 % 1017,6 hPa 0,0 l/m 0,00 h 0,00 h 0 W/m 1,7 km/h (1 Bft) 96,43 %
03.09.2018 03:00 17,8 C 16,7 C 16,3 C 74 % 1017,3 hPa 0,0 l/m 0,00 h 0,00 h 0 W/m 0,0 km/h (0 Bft) 98,66 %
03.09.2018 04:00 17,5 C 16,7 C 16,2 C 76 % 1017,4 hPa 0,0 l/m 0,00 h 0,00 h 0 W/m 0,0 km/h (0 Bft) 98,04 %
03.09.2018 05:00 17,4 C 16,9 C 16,1 C 78 % 1017,0 hPa 0,0 l/m 0,00 h 0,00 h 0 W/m 0,6 km/h (0 Bft) 96,09 %
03.09.2018 06:00 17,4 C 16,7 C 16,1 C 80 % 1016,6 hPa 0,0 l/m 0,00 h 0,00 h 0 W/m 0,2 km/h (0 Bft) 98,34 %
03.09.2018 07:00 17,2 C 16,7 C 16,3 C 79 % 1016,5 hPa 0,0 l/m 0,00 h 0,00 h 16 W/m 1,7 km/h (1 Bft) 97,83 %
03.09.2018 08:00 17,5 C 17,6 C 16,8 C 79 % 1016,4 hPa 0,0 l/m 0,00 h 0,00 h 84 W/m 3,7 km/h (1 Bft) 97,28 %
03.09.2018 09:00 18,2 C 18,3 C 17,2 C 79 % 1016,2 hPa 0,0 l/m 0,00 h 0,00 h 95 W/m 4,5 km/h (1 Bft) 96,89 %
03.09.2018 10:00 18,7 C 17,7 C 17,1 C 78 % 1016,1 hPa 0,0 l/m 0,00 h 0,20 h 74 W/m 2,9 km/h (1 Bft) 96,78 %
03.09.2018 11:00 18,5 C 16,7 C 16,3 C 84 % 1016,1 hPa 0,0 l/m 0,00 h 0,23 h 118 W/m 0,5 km/h (0 Bft) 99,00 %
03.09.2018 12:00 18,7 C 19,3 C 17,6 C 84 % 1015,6 hPa 0,0 l/m 0,10 h 0,00 h 190 W/m 1,4 km/h (1 Bft) 96,76 %
03.09.2018 13:00 20,0 C 20,9 C 18,8 C 80 % 1015,3 hPa 0,0 l/m 0,07 h 0,00 h 278 W/m 5,0 km/h (1 Bft) 96,17 %
03.09.2018 14:00 21,1 C 22,0 C 19,6 C 77 % 1015,0 hPa 0,0 l/m 0,30 h 0,00 h 308 W/m 6,5 km/h (2 Bft) 99,45 %
03.09.2018 15:00 22,1 C 23,0 C 20,6 C 75 % 1014,6 hPa 0,0 l/m 0,63 h 0,00 h 378 W/m 8,4 km/h (2 Bft) 97,15 %
03.09.2018 16:00 22,7 C 22,8 C 20,8 C 75 % 1014,4 hPa 0,0 l/m 0,40 h 0,00 h 242 W/m 5,2 km/h (1 Bft) 95,64 %
03.09.2018 17:00 22,7 C 22,2 C 20,6 C 75 % 1014,3 hPa 0,0 l/m 0,00 h 0,03 h 106 W/m 2,9 km/h (1 Bft) 99,51 %
03.09.2018 18:00 22,3 C 21,3 C 20,2 C 77 % 1014,4 hPa 0,0 l/m 0,00 h 0,00 h 38 W/m 4,4 km/h (1 Bft) 96,74 %
03.09.2018 19:00 21,7 C 20,7 C 19,7 C 79 % 1014,3 hPa 0,0 l/m 0,00 h 0,00 h 33 W/m 0,8 km/h (0 Bft) 96,21 %
03.09.2018 20:00 21,2 C 19,7 C 18,9 C 81 % 1014,3 hPa 0,0 l/m 0,00 h 0,00 h 5 W/m 0,0 km/h (0 Bft) 99,47 %
03.09.2018 21:00 20,5 C 19,1 C 18,3 C 83 % 1014,5 hPa 0,0 l/m 0,00 h 0,00 h 0 W/m 0,0 km/h (0 Bft) 97,50 %
03.09.2018 22:00 19,9 C 18,8 C 18,2 C 85 % 1014,2 hPa 0,0 l/m 0,00 h 0,00 h 0 W/m 0,0 km/h (0 Bft) 95,72 %
03.09.2018 23:00 19,5 C 18,3 C 17,8 C 86 % 1014,1 hPa 0,0 l/m 0,00 h 0,00 h 0 W/m 0,0 km/h (0 Bft) 98,79 %
04.09.2018 00:00 19,1 C 18,0 C 17,6 C 88 % 1014,2 hPa 0,0 l/m 0,00 h 0,00 h 0 W/m 0,2 km/h (0 Bft) 97,87 %
04.09.2018 01:00 18,4 C 16,6 C 16,5 C 89 % 1014,1 hPa 0,0 l/m 0,00 h 0,00 h 0 W/m 0,0 km/h (0 Bft) 96,54 %
04.09.2018 02:00 17,4 C 15,7 C 15,7 C 91 % 1013,9 hPa 0,0 l/m 0,00 h 0,00 h 0 W/m 0,0 km/h (0 Bft) 97,30 %
04.09.2018 03:00 16,6 C 15,2 C 15,0 C 92 % 1013,8 hPa 0,0 l/m 0,00 h 0,00 h 0 W/m 0,0 km/h (0 Bft) 97,40 %
04.09.2018 04:00 16,1 C 15,1 C 15,0 C 93 % 1013,8 hPa 0,0 l/m 0,00 h 0,00 h 0 W/m 0,0 km/h (0 Bft) 98,72 %
04.09.2018 05:00 16,1 C 15,5 C 15,3 C 95 % 1013,6 hPa 0,0 l/m 0,00 h 0,00 h 0 W/m 0,3 km/h (0 Bft) 96,54 %
04.09.2018 06:00 16,0 C 15,0 C 15,0 C 95 % 1013,8 hPa 0,0 l/m 0,00 h 0,00 h 5 W/m 0,1 km/h (0 Bft) 96,36 %
04.09.2018 07:00 15,9 C 15,0 C 15,0 C 96 % 1014,0 hPa 0,0 l/m 0,00 h 0,00 h 28 W/m 0,2 km/h (0 Bft) 99,08 %
04.09.2018 08:00 16,1 C 16,1 C 15,3 C 97 % 1014,4 hPa 0,0 l/m 0,00 h 0,00 h 94 W/m 1,0 km/h (0 Bft) 97,21 %
04.09.2018 09:00 16,9 C 17,0 C 16,1 C 98 % 1014,7 hPa 0,0 l/m 0,00 h 0,00 h 127 W/m 3,2 km/h (1 Bft) 95,44 %
04.09.2018 10:00 17,6 C 18,5 C 17,1 C 98 % 1014,8 hPa 0,0 l/m 0,00 h 0,00 h 177 W/m 1,7 km/h (1 Bft) 98,48 %
04.09.2018 11:00 19,3 C 24,2 C 18,9 C 99 % 1014,8 hPa 0,0 l/m 0,83 h 0,00 h 376 W/m 3,9 km/h (1 Bft) 98,36 %
04.09.2018 12:00 22,5 C 29,2 C 20,7 C 86 % 1014,5 hPa 0,0 l/m 0,30 h 0,00 h 359 W/m 3,9 km/h (1 Bft) 96,46 %
04.09.2018 13:00 24,7 C 26,3 C 22,2 C 74 % 1014,3 hPa 0,0 l/m 1,00 h 0,00 h 550 W/m 3,9 km/h (1 Bft) 96,17 %
04.09.2018 14:00 25,3 C 26,4 C 23,0 C 70 % 1014,1 hPa 0,0 l/m 0,97 h 0,00 h 517 W/m 5,6 km/h (1 Bft) 99,72 %
04.09.2018 15:00 25,7 C 26,1 C 23,4 C 68 % 1013,8 hPa 0,0 l/m 0,60 h 0,00 h 373 W/m 4,8 km/h (1 Bft) 97,05 %
04.09.2018 16:00 26,1 C 26,7 C 23,6 C 67 % 1013,8 hPa 0,0 l/m 0,63 h 0,00 h 370 W/m 5,7 km/h (1 Bft) 95,69 %
04.09.2018 17:00 26,5 C 27,4 C 24,3 C 65 % 1013,8 hPa 0,0 l/m 1,00 h 0,00 h 369 W/m 5,5 km/h (1 Bft) 99,43 %
04.09.2018 18:00 24,4 C 20,2 C 19,9 C 72 % 1014,4 hPa 3,0 l/m 0,07 h 0,63 h 40 W/m 9,4 km/h (2 Bft) 97,23 %
04.09.2018 19:00 20,4 C 17,5 C 17,5 C 88 % 1014,5 hPa 0,4 l/m 0,00 h 0,73 h 26 W/m 0,3 km/h (0 Bft) 95,71 %
04.09.2018 20:00 19,4 C 17,8 C 17,5 C 93 % 1014,6 hPa 0,0 l/m 0,00 h 0,67 h 8 W/m 0,1 km/h (0 Bft) 99,79 %
04.09.2018 21:00 19,0 C 17,8 C 17,2 C 94 % 1014,9 hPa 0,2 l/m 0,00 h 0,00 h 0 W/m 0,1 km/h (0 Bft) 97,16 %
04.09.2018 22:00 18,9 C 17,8 C 17,2 C 95 % 1014,9 hPa 0,0 l/m 0,00 h 0,00 h 0 W/m 0,1 km/h (0 Bft) 95,93 %
04.09.2018 23:00 18,9 C 17,8 C 17,3 C 96 % 1015,1 hPa 0,0 l/m 0,00 h 0,00 h 0 W/m 0,1 km/h (0 Bft) 99,02 %
05.09.2018 00:00 18,7 C 17,3 C 16,9 C 97 % 1015,1 hPa 0,0 l/m 0,00 h 0,00 h 0 W/m 0,0 km/h (0 Bft) 93,21 %
05.09.2018 01:00 18,2 C 17,2 C 16,7 C 97 % 1015,0 hPa 0,0 l/m 0,00 h 0,00 h 0 W/m 0,0 km/h (0 Bft) 98,16 %
05.09.2018 02:00 17,9 C 16,6 C 16,3 C 97 % 1014,8 hPa 0,0 l/m 0,00 h 0,00 h 0 W/m 0,0 km/h (0 Bft) 97,47 %
05.09.2018 03:00 17,3 C 16,1 C 15,7 C 97 % 1014,6 hPa 0,0 l/m 0,00 h 0,00 h 0 W/m 0,0 km/h (0 Bft) 95,80 %
05.09.2018 04:00 16,9 C 15,9 C 15,6 C 97 % 1014,6 hPa 0,0 l/m 0,00 h 0,00 h 0 W/m 0,0 km/h (0 Bft) 99,54 %
05.09.2018 05:00 16,6 C 15,6 C 15,2 C 97 % 1014,5 hPa 0,0 l/m 0,00 h 0,00 h 0 W/m 0,0 km/h (0 Bft) 97,52 %
05.09.2018 06:00 16,3 C 15,6 C 15,3 C 97 % 1014,6 hPa 0,0 l/m 0,00 h 0,00 h 3 W/m 0,0 km/h (0 Bft) 96,19 %
05.09.2018 07:00 16,4 C 16,0 C 15,7 C 98 % 1014,8 hPa 0,0 l/m 0,00 h 0,00 h 21 W/m 0,0 km/h (0 Bft) 99,63 %
05.09.2018 08:00 17,0 C 17,1 C 16,4 C 98 % 1015,0 hPa 0,0 l/m 0,00 h 0,00 h 74 W/m 0,0 km/h (0 Bft) 96,93 %
05.09.2018 09:00 18,4 C 19,0 C 17,5 C 99 % 1015,1 hPa 0,0 l/m 0,37 h 0,00 h 183 W/m 0,1 km/h (0 Bft) 96,45 %
05.09.2018 10:00 19,6 C 23,1 C 18,5 C 99 % 1015,1 hPa 0,0 l/m 1,00 h 0,00 h 307 W/m 0,8 km/h (0 Bft) 98,93 %
05.09.2018 11:00 21,3 C 25,5 C 19,2 C 96 % 1015,2 hPa 0,0 l/m 1,00 h 0,00 h 339 W/m 1,6 km/h (1 Bft) 97,88 %
05.09.2018 12:00 23,6 C 26,3 C 21,3 C 80 % 1014,8 hPa 0,0 l/m 0,70 h 0,00 h 353 W/m 1,7 km/h (1 Bft) 95,73 %
05.09.2018 13:00 24,8 C 25,9 C 22,0 C 76 % 1014,4 hPa 0,0 l/m 0,50 h 0,00 h 341 W/m 0,4 km/h (0 Bft) 97,80 %
05.09.2018 14:00 25,9 C 27,5 C 23,1 C 70 % 1014,1 hPa 0,0 l/m 1,00 h 0,00 h 510 W/m 4,7 km/h (1 Bft) 99,65 %
05.09.2018 15:00 27,2 C 27,8 C 24,1 C 64 % 1013,6 hPa 0,0 l/m 0,97 h 0,00 h 586 W/m 7,1 km/h (2 Bft) 95,51 %
05.09.2018 16:00 28,0 C 28,4 C 24,5 C 60 % 1013,1 hPa 0,0 l/m 0,70 h 0,00 h 369 W/m 6,9 km/h (2 Bft) 96,86 %
05.09.2018 17:00 27,5 C 26,9 C 24,2 C 60 % 1012,7 hPa 0,0 l/m 0,47 h 0,00 h 212 W/m 5,3 km/h (1 Bft) 99,58 %
05.09.2018 18:00 27,0 C 26,0 C 23,8 C 58 % 1012,4 hPa 0,0 l/m 0,57 h 0,00 h 129 W/m 5,0 km/h (1 Bft) 96,29 %
05.09.2018 19:00 25,9 C 24,2 C 22,5 C 61 % 1012,4 hPa 0,0 l/m 0,00 h 0,00 h 40 W/m 1,8 km/h (1 Bft) 96,72 %
05.09.2018 20:00 24,5 C 22,6 C 20,9 C 66 % 1012,4 hPa 0,0 l/m 0,00 h 0,00 h 6 W/m 0,5 km/h (0 Bft) 99,65 %
05.09.2018 21:00 22,9 C 20,9 C 19,7 C 70 % 1012,5 hPa 0,0 l/m 0,00 h 0,00 h 0 W/m 0,0 km/h (0 Bft) 96,72 %
05.09.2018 22:00 21,6 C 20,6 C 19,2 C 72 % 1012,5 hPa 0,0 l/m 0,00 h 0,00 h 0 W/m 0,0 km/h (0 Bft) 96,38 %
05.09.2018 23:00 21,1 C 19,7 C 18,9 C 76 % 1012,4 hPa 0,0 l/m 0,00 h 0,00 h 0 W/m 0,2 km/h (0 Bft) 98,94 %
06.09.2018 00:00 20,6 C 19,5 C 19,3 C 79 % 1012,6 hPa 0,0 l/m 0,00 h 0,17 h 0 W/m 3,2 km/h (1 Bft) 97,74 %
06.09.2018 01:00 20,1 C 18,0 C 17,9 C 87 % 1012,6 hPa 2,6 l/m 0,00 h 0,70 h 0 W/m 5,3 km/h (1 Bft) 96,17 %
06.09.2018 02:00 18,7 C 16,9 C 16,7 C 94 % 1011,8 hPa 0,6 l/m 0,00 h 0,93 h 0 W/m 7,8 km/h (2 Bft) 98,00 %
06.09.2018 03:00 17,9 C 16,4 C 16,2 C 95 % 1011,4 hPa 0,2 l/m 0,00 h 0,50 h 0 W/m 3,1 km/h (1 Bft) 98,58 %
06.09.2018 04:00 17,7 C 16,6 C 16,2 C 97 % 1011,6 hPa 7,6 l/m 0,00 h 1,00 h 0 W/m 0,0 km/h (0 Bft) 98,19 %
06.09.2018 05:00 17,4 C 16,1 C 16,1 C 97 % 1011,0 hPa 1,8 l/m 0,00 h 0,83 h 0 W/m 1,1 km/h (1 Bft) 96,31 %
06.09.2018 06:00 17,4 C 16,5 C 16,1 C 98 % 1011,3 hPa 0,0 l/m 0,00 h 0,48 h 4 W/m 1,0 km/h (0 Bft) 98,47 %
06.09.2018 07:00 17,3 C 16,2 C 16,1 C 98 % 1011,2 hPa 0,0 l/m 0,00 h 0,00 h 12 W/m 0,3 km/h (0 Bft) 98,36 %
06.09.2018 08:00 17,3 C 16,7 C 16,2 C 98 % 1010,7 hPa 0,2 l/m 0,00 h 0,17 h 32 W/m 1,4 km/h (1 Bft) 96,47 %
06.09.2018 09:00 17,6 C 16,8 C 16,6 C 98 % 1010,7 hPa 0,2 l/m 0,00 h 0,50 h 51 W/m 0,0 km/h (0 Bft) 97,87 %
06.09.2018 10:00 17,8 C 16,9 C 16,7 C 99 % 1010,9 hPa 0,0 l/m 0,00 h 0,47 h 44 W/m 0,2 km/h (0 Bft) 97,94 %
06.09.2018 11:00 18,0 C 17,5 C 16,8 C 99 % 1010,8 hPa 0,0 l/m 0,00 h 0,03 h 131 W/m 1,1 km/h (1 Bft) 98,13 %
06.09.2018 12:00 18,4 C 17,9 C 17,2 C 99 % 1010,6 hPa 0,0 l/m 0,00 h 0,07 h 127 W/m 0,9 km/h (0 Bft) 96,76 %
06.09.2018 13:00 18,9 C 20,1 C 17,8 C 99 % 1010,3 hPa 0,0 l/m 0,00 h 0,00 h 276 W/m 2,8 km/h (1 Bft) 96,99 %
06.09.2018 14:00 20,1 C 22,2 C 19,4 C 92 % 1009,9 hPa 0,0 l/m 0,57 h 0,00 h 387 W/m 3,2 km/h (1 Bft) 99,14 %
06.09.2018 15:00 21,3 C 21,3 C 19,3 C 85 % 1009,5 hPa 0,0 l/m 0,00 h 0,00 h 174 W/m 2,0 km/h (1 Bft) 96,93 %
06.09.2018 16:00 21,4 C 21,8 C 19,9 C 84 % 1009,1 hPa 0,0 l/m 0,50 h 0,00 h 284 W/m 3,7 km/h (1 Bft) 96,89 %
06.09.2018 17:00 21,6 C 20,9 C 19,7 C 82 % 1008,8 hPa 0,0 l/m 0,13 h 0,00 h 129 W/m 5,5 km/h (1 Bft) 99,20 %
06.09.2018 18:00 20,9 C 20,2 C 19,1 C 83 % 1008,7 hPa 0,0 l/m 0,57 h 0,00 h 134 W/m 8,9 km/h (2 Bft) 96,04 %
06.09.2018 19:00 20,0 C 18,9 C 18,3 C 82 % 1009,2 hPa 0,0 l/m 0,07 h 0,00 h 40 W/m 11,7 km/h (2 Bft) 97,50 %
06.09.2018 20:00 18,4 C 17,1 C 16,8 C 85 % 1009,6 hPa 0,0 l/m 0,00 h 0,00 h 10 W/m 10,7 km/h (2 Bft) 99,29 %
06.09.2018 21:00 17,2 C 15,7 C 15,9 C 88 % 1010,0 hPa 0,0 l/m 0,00 h 0,00 h 0 W/m 2,3 km/h (1 Bft) 95,66 %
06.09.2018 22:00 16,2 C 14,7 C 15,1 C 91 % 1010,3 hPa 0,0 l/m 0,00 h 0,00 h 0 W/m 1,0 km/h (0 Bft) 97,58 %
06.09.2018 23:00 15,5 C 14,1 C 14,4 C 93 % 1010,5 hPa 0,0 l/m 0,00 h 0,00 h 0 W/m 0,1 km/h (0 Bft) 99,01 %
07.09.2018 00:00 15,2 C 14,4 C 14,4 C 95 % 1010,4 hPa 0,0 l/m 0,00 h 0,00 h 0 W/m 0,3 km/h (0 Bft) 96,66 %
07.09.2018 01:00 15,2 C 14,2 C 14,4 C 96 % 1010,2 hPa 0,0 l/m 0,00 h 0,00 h 0 W/m 0,2 km/h (0 Bft) 96,87 %
07.09.2018 02:00 14,7 C 13,8 C 14,1 C 96 % 1010,0 hPa 0,0 l/m 0,00 h 0,00 h 0 W/m 1,2 km/h (1 Bft) 98,23 %
07.09.2018 03:00 14,6 C 14,1 C 14,1 C 96 % 1009,9 hPa 0,0 l/m 0,00 h 0,00 h 0 W/m 1,0 km/h (0 Bft) 96,37 %
07.09.2018 04:00 14,4 C 13,9 C 13,9 C 96 % 1009,7 hPa 0,0 l/m 0,00 h 0,00 h 0 W/m 0,8 km/h (0 Bft) 99,86 %
07.09.2018 05:00 14,4 C 13,9 C 13,9 C 95 % 1009,5 hPa 0,0 l/m 0,00 h 0,00 h 0 W/m 1,8 km/h (1 Bft) 96,11 %
07.09.2018 06:00 14,4 C 13,9 C 13,9 C 95 % 1009,6 hPa 0,0 l/m 0,00 h 0,00 h 4 W/m 2,9 km/h (1 Bft) 96,66 %
07.09.2018 07:00 14,4 C 14,1 C 13,9 C 95 % 1009,7 hPa 0,0 l/m 0,00 h 0,00 h 23 W/m 3,7 km/h (1 Bft) 99,86 %
07.09.2018 08:00 14,7 C 14,7 C 14,4 C 94 % 1009,7 hPa 0,0 l/m 0,00 h 0,00 h 60 W/m 4,8 km/h (1 Bft) 96,59 %
07.09.2018 09:00 15,2 C 14,2 C 14,2 C 91 % 1010,0 hPa 0,0 l/m 0,00 h 0,47 h 46 W/m 8,3 km/h (2 Bft) 96,37 %
07.09.2018 10:00 15,0 C 14,4 C 14,1 C 95 % 1010,6 hPa 0,2 l/m 0,00 h 0,37 h 147 W/m 6,6 km/h (2 Bft) 99,72 %
07.09.2018 11:00 16,6 C 20,4 C 15,7 C 89 % 1011,0 hPa 0,0 l/m 0,63 h 0,00 h 413 W/m 8,8 km/h (2 Bft) 97,80 %
07.09.2018 12:00 18,0 C 20,2 C 16,4 C 77 % 1011,4 hPa 0,0 l/m 0,07 h 0,00 h 245 W/m 10,0 km/h (2 Bft) 95,87 %
07.09.2018 13:00 18,2 C 18,3 C 16,5 C 71 % 1011,9 hPa 0,0 l/m 0,13 h 0,00 h 247 W/m 10,1 km/h (2 Bft) 97,37 %
07.09.2018 14:00 17,8 C 18,2 C 16,7 C 65 % 1012,3 hPa 0,0 l/m 0,43 h 0,00 h 452 W/m 10,4 km/h (2 Bft) 99,00 %
07.09.2018 15:00 18,9 C 18,9 C 17,5 C 60 % 1012,6 hPa 0,0 l/m 0,77 h 0,00 h 556 W/m 10,0 km/h (2 Bft) 96,15 %
07.09.2018 16:00 19,1 C 20,1 C 17,4 C 58 % 1012,8 hPa 0,0 l/m 0,93 h 0,00 h 529 W/m 10,2 km/h (2 Bft) 96,80 %
07.09.2018 17:00 18,9 C 19,0 C 17,2 C 57 % 1013,2 hPa 0,0 l/m 0,83 h 0,00 h 349 W/m 9,5 km/h (2 Bft) 99,57 %
07.09.2018 18:00 18,4 C 17,7 C 16,7 C 58 % 1013,5 hPa 0,0 l/m 0,77 h 0,00 h 212 W/m 8,6 km/h (2 Bft) 96,37 %
07.09.2018 19:00 17,0 C 15,6 C 15,3 C 61 % 1014,0 hPa 0,0 l/m 0,00 h 0,00 h 26 W/m 7,5 km/h (2 Bft) 97,84 %
07.09.2018 20:00 15,2 C 13,2 C 13,2 C 68 % 1014,8 hPa 0,0 l/m 0,00 h 0,00 h 6 W/m 1,1 km/h (1 Bft) 99,43 %
07.09.2018 21:00 13,4 C 11,5 C 11,3 C 74 % 1015,4 hPa 0,0 l/m 0,00 h 0,00 h 0 W/m 0,0 km/h (0 Bft) 93,66 %
07.09.2018 22:00 11,9 C 11,1 C 10,6 C 79 % 1015,6 hPa 0,0 l/m 0,00 h 0,00 h 0 W/m 0,2 km/h (0 Bft) 98,15 %
07.09.2018 23:00 11,7 C 11,3 C 10,9 C 81 % 1015,8 hPa 0,0 l/m 0,00 h 0,00 h 0 W/m 1,1 km/h (0 Bft) 98,22 %
08.09.2018 00:00 11,6 C 11,1 C 11,2 C 81 % 1016,1 hPa 0,0 l/m 0,00 h 0,00 h 0 W/m 3,2 km/h (1 Bft) 93,68 %
08.09.2018 01:00 11,4 C 10,7 C 11,1 C 81 % 1016,3 hPa 0,0 l/m 0,00 h 0,00 h 0 W/m 4,0 km/h (1 Bft) 97,25 %
08.09.2018 02:00 11,2 C 10,6 C 10,9 C 81 % 1016,5 hPa 0,0 l/m 0,00 h 0,00 h 0 W/m 4,3 km/h (1 Bft) 97,29 %
08.09.2018 03:00 10,9 C 10,5 C 10,6 C 83 % 1016,6 hPa 0,0 l/m 0,00 h 0,00 h 0 W/m 4,9 km/h (1 Bft) 96,76 %
08.09.2018 04:00 10,8 C 10,2 C 10,6 C 84 % 1016,8 hPa 0,0 l/m 0,00 h 0,00 h 0 W/m 5,3 km/h (1 Bft) 98,01 %
08.09.2018 05:00 10,8 C 10,2 C 10,6 C 85 % 1017,1 hPa 0,0 l/m 0,00 h 0,00 h 0 W/m 3,7 km/h (1 Bft) 99,41 %
08.09.2018 06:00 10,8 C 10,2 C 10,4 C 86 % 1017,3 hPa 0,0 l/m 0,00 h 0,00 h 5 W/m 4,2 km/h (1 Bft) 94,26 %
08.09.2018 07:00 10,4 C 9,7 C 10,0 C 88 % 1017,6 hPa 0,0 l/m 0,00 h 0,00 h 19 W/m 4,5 km/h (1 Bft) 98,63 %
08.09.2018 08:00 11,0 C 11,3 C 11,1 C 90 % 1017,9 hPa 0,0 l/m 0,00 h 0,00 h 42 W/m 6,0 km/h (2 Bft) 99,32 %
08.09.2018 09:00 13,0 C 13,9 C 12,7 C 85 % 1017,9 hPa 0,0 l/m 0,53 h 0,00 h 185 W/m 6,1 km/h (2 Bft) 95,50 %
08.09.2018 10:00 15,4 C 18,7 C 14,3 C 79 % 1018,2 hPa 0,0 l/m 0,93 h 0,00 h 351 W/m 8,5 km/h (2 Bft) 98,37 %
08.09.2018 11:00 17,9 C 22,0 C 15,7 C 70 % 1018,2 hPa 0,0 l/m 0,70 h 0,00 h 381 W/m 8,4 km/h (2 Bft) 98,37 %
08.09.2018 12:00 19,1 C 21,5 C 16,7 C 64 % 1018,2 hPa 0,0 l/m 0,03 h 0,00 h 199 W/m 9,6 km/h (2 Bft) 98,08 %
08.09.2018 13:00 19,1 C 19,6 C 17,3 C 64 % 1018,0 hPa 0,0 l/m 0,37 h 0,00 h 373 W/m 8,1 km/h (2 Bft) 96,24 %
08.09.2018 14:00 19,9 C 20,0 C 18,3 C 61 % 1017,8 hPa 0,0 l/m 0,53 h 0,00 h 540 W/m 9,3 km/h (2 Bft) 97,37 %
08.09.2018 15:00 19,8 C 19,6 C 18,1 C 61 % 1017,8 hPa 0,0 l/m 0,33 h 0,00 h 299 W/m 6,9 km/h (2 Bft) 99,01 %
08.09.2018 16:00 19,8 C 19,9 C 18,2 C 60 % 1017,7 hPa 0,0 l/m 0,60 h 0,00 h 280 W/m 6,2 km/h (2 Bft) 95,94 %
08.09.2018 17:00 19,7 C 19,1 C 17,9 C 61 % 1017,5 hPa 0,0 l/m 0,07 h 0,00 h 145 W/m 4,5 km/h (1 Bft) 97,84 %
08.09.2018 18:00 19,2 C 18,4 C 17,4 C 63 % 1017,5 hPa 0,0 l/m 0,00 h 0,00 h 66 W/m 1,9 km/h (1 Bft) 98,86 %
08.09.2018 19:00 18,7 C 17,7 C 16,7 C 66 % 1017,3 hPa 0,0 l/m 0,00 h 0,00 h 27 W/m 0,3 km/h (0 Bft) 95,43 %
08.09.2018 20:00 17,8 C 16,1 C 15,3 C 70 % 1017,5 hPa 0,0 l/m 0,00 h 0,00 h 0 W/m 0,0 km/h (0 Bft) 98,08 %
08.09.2018 21:00 16,7 C 15,2 C 14,6 C 74 % 1017,7 hPa 0,0 l/m 0,00 h 0,00 h 0 W/m 0,0 km/h (0 Bft) 99,08 %
08.09.2018 22:00 15,9 C 14,7 C 14,1 C 78 % 1018,0 hPa 0,0 l/m 0,00 h 0,00 h 0 W/m 0,0 km/h (0 Bft) 96,37 %
08.09.2018 23:00 15,3 C 14,2 C 13,7 C 80 % 1017,9 hPa 0,0 l/m 0,00 h 0,00 h 0 W/m 0,0 km/h (0 Bft) 97,42 %
09.09.2018 00:00 14,9 C 14,4 C 13,8 C 84 % 1017,7 hPa 0,0 l/m 0,00 h 0,00 h 0 W/m 0,2 km/h (0 Bft) 98,46 %
09.09.2018 01:00 14,8 C 14,4 C 13,9 C 84 % 1017,8 hPa 0,0 l/m 0,00 h 0,00 h 0 W/m 1,6 km/h (1 Bft) 96,80 %
09.09.2018 02:00 14,8 C 14,4 C 13,9 C 84 % 1017,7 hPa 0,0 l/m 0,00 h 0,00 h 0 W/m 3,4 km/h (1 Bft) 98,20 %
09.09.2018 03:00 14,7 C 14,3 C 13,9 C 84 % 1017,7 hPa 0,0 l/m 0,00 h 0,00 h 0 W/m 1,9 km/h (1 Bft) 96,58 %
09.09.2018 04:00 14,8 C 14,2 C 13,9 C 83 % 1017,8 hPa 0,0 l/m 0,00 h 0,00 h 0 W/m 3,0 km/h (1 Bft) 97,95 %
09.09.2018 05:00 14,7 C 13,9 C 13,8 C 84 % 1017,7 hPa 0,0 l/m 0,00 h 0,00 h 0 W/m 2,6 km/h (1 Bft) 99,46 %
09.09.2018 06:00 14,4 C 13,7 C 13,3 C 85 % 1017,8 hPa 0,0 l/m 0,00 h 0,00 h 0 W/m 0,8 km/h (0 Bft) 94,10 %
09.09.2018 07:00 14,2 C 13,6 C 13,3 C 86 % 1018,1 hPa 0,0 l/m 0,00 h 0,00 h 20 W/m 0,6 km/h (0 Bft) 98,37 %
09.09.2018 08:00 14,3 C 14,3 C 13,7 C 87 % 1018,5 hPa 0,0 l/m 0,00 h 0,00 h 72 W/m 0,8 km/h (0 Bft) 99,30 %
09.09.2018 09:00 15,2 C 16,4 C 14,8 C 86 % 1018,8 hPa 0,0 l/m 0,10 h 0,00 h 167 W/m 2,0 km/h (1 Bft) 95,67 %
09.09.2018 10:00 17,1 C 19,3 C 16,3 C 80 % 1019,0 hPa 0,0 l/m 0,50 h 0,00 h 260 W/m 5,0 km/h (1 Bft) 97,71 %
09.09.2018 11:00 20,0 C 25,3 C 17,9 C 70 % 1019,0 hPa 0,0 l/m 0,80 h 0,00 h 379 W/m 6,2 km/h (2 Bft) 98,01 %
09.09.2018 12:00 22,4 C 25,4 C 19,4 C 61 % 1019,0 hPa 0,0 l/m 0,27 h 0,00 h 287 W/m 7,2 km/h (2 Bft) 98,23 %
09.09.2018 13:00 22,5 C 23,2 C 20,4 C 60 % 1018,9 hPa 0,0 l/m 0,77 h 0,00 h 379 W/m 7,4 km/h (2 Bft) 96,40 %
09.09.2018 14:00 23,0 C 23,5 C 20,9 C 59 % 1018,5 hPa 0,0 l/m 0,73 h 0,00 h 377 W/m 5,4 km/h (1 Bft) 97,67 %
09.09.2018 15:00 23,2 C 23,2 C 21,0 C 58 % 1018,4 hPa 0,0 l/m 0,20 h 0,00 h 237 W/m 5,5 km/h (1 Bft) 97,09 %
09.09.2018 16:00 23,5 C 24,0 C 21,3 C 58 % 1018,2 hPa 0,0 l/m 0,50 h 0,03 h 299 W/m 4,3 km/h (1 Bft) 95,72 %
09.09.2018 17:00 24,7 C 26,2 C 21,7 C 55 % 1018,0 hPa 0,0 l/m 1,00 h 0,00 h 406 W/m 3,6 km/h (1 Bft) 98,06 %
09.09.2018 18:00 25,2 C 24,4 C 21,9 C 52 % 1017,7 hPa 0,0 l/m 0,83 h 0,00 h 234 W/m 6,9 km/h (2 Bft) 99,23 %
09.09.2018 19:00 24,0 C 22,3 C 20,6 C 55 % 1017,7 hPa 0,0 l/m 0,00 h 0,00 h 25 W/m 4,1 km/h (1 Bft) 96,16 %
09.09.2018 20:00 21,3 C 18,3 C 17,2 C 64 % 1017,8 hPa 0,0 l/m 0,00 h 0,00 h 5 W/m 0,2 km/h (0 Bft) 98,08 %
09.09.2018 21:00 18,4 C 16,6 C 15,5 C 73 % 1018,1 hPa 0,0 l/m 0,00 h 0,00 h 0 W/m 0,1 km/h (0 Bft) 98,99 %
09.09.2018 22:00 17,0 C 16,1 C 15,0 C 77 % 1018,1 hPa 0,0 l/m 0,00 h 0,00 h 0 W/m 1,3 km/h (1 Bft) 95,50 %
09.09.2018 23:00 16,6 C 16,1 C 15,0 C 77 % 1018,0 hPa 0,0 l/m 0,00 h 0,00 h 0 W/m 3,6 km/h (1 Bft) 98,72 %
Min-Datum _ 08.09.18 08.09.18 07.09.18 09.09.18 06.09.18 - - - - 03.09.18 05.09.18
_ Min-Zeit 07:32 07:02 22:16 18:14 18:06 - - - - 00:42 00:02
Minimum _ 10,3 C 9,4 C 10,0 C 50 % 1008,6 hPa - - - - 0,0 km/h (0 Bft) 5,26 %
Max-Datum _ 05.09.18 04.09.18 05.09.18 05.09.18 09.09.18 06.09.18 03.09.18 06.09.18 08.09.18 04.09.18 03.09.18
_ Max-Zeit 16:18 12:38 15:34 10:50 10:40 04:12 16:38 04:05 14:30 18:20 00:32
Maximum _ 28,1 C 31,1 C 25,0 C 100 % 1019,1 hPa 7,6 l/m 0,07 h 0,08 h 877 W/m 22,5 km/h
S-SO (4 Bft)
100,00 %
Durchschnitt _ 18,4 C 18,2 C 16,9 C 81 % 1014,6 hPa #17,0 l/m #30:22 h #9:13 h 197 W/m 3,1 km/h (1 Bft) 97,48 %
© 2018 W. Hausmann